createdAt,value
2019-04-11T17:48:02.601Z,21.42
2019-04-11T17:49:02.601Z,21.37
2019-04-11T17:50:04.496Z,21.37
2019-04-11T17:51:04.814Z,21.39
2019-04-11T17:52:04.889Z,21.43
2019-04-11T17:53:02.554Z,21.52
2019-04-11T17:53:47.713Z,21.54
2019-04-11T17:54:47.591Z,21.55
2019-04-11T17:55:47.569Z,21.48
2019-04-11T17:56:47.545Z,21.42
2019-04-11T17:57:47.465Z,21.35
2019-04-11T17:58:47.433Z,21.30
2019-04-11T17:59:48.733Z,21.30
2019-04-11T18:00:47.337Z,21.27
2019-04-11T18:01:47.298Z,21.25
2019-04-11T18:02:47.267Z,21.22
2019-04-11T18:03:47.218Z,21.22
2019-04-11T18:04:48.056Z,21.22
2019-04-11T18:05:47.559Z,21.69
2019-04-11T18:06:47.732Z,21.77
2019-04-11T18:07:49.771Z,21.54
2019-04-11T18:38:32.025Z,21.12
2019-04-11T18:40:40.240Z,14.84
2019-04-11T18:41:39.824Z,11.88
2019-04-11T18:42:39.795Z,9.79
2019-04-11T18:43:39.785Z,8.67
2019-04-11T18:44:39.785Z,7.57
2019-04-11T18:45:39.787Z,6.70
2019-04-11T18:46:39.760Z,6.22
2019-04-11T18:47:39.761Z,5.84
2019-04-11T18:48:39.741Z,5.57
2019-04-11T18:49:39.735Z,5.33
2019-04-11T18:50:39.774Z,5.21
2019-04-11T18:51:39.719Z,5.08
2019-04-11T18:52:39.696Z,4.99
2019-04-11T18:53:39.672Z,4.93
2019-04-11T18:54:39.663Z,4.89
2019-04-11T18:55:39.662Z,4.84
2019-04-11T18:56:39.670Z,4.84
2019-04-11T18:57:39.656Z,4.78
2019-04-11T18:58:39.626Z,4.75
2019-04-11T18:59:39.616Z,4.71
2019-04-11T19:00:39.612Z,4.70
2019-04-11T19:01:40.145Z,4.68
2019-04-11T19:02:40.262Z,4.63
2019-04-11T19:03:41.344Z,4.60
2019-04-11T19:04:41.965Z,4.58
2019-04-11T19:05:42.786Z,4.58
2019-04-11T19:06:42.576Z,4.55
2019-04-11T19:07:42.845Z,4.55
2019-04-11T19:08:43.147Z,4.56
2019-04-11T19:09:43.431Z,4.56
2019-04-11T19:10:39.529Z,4.53
2019-04-11T19:11:39.551Z,4.53
2019-04-11T19:12:39.598Z,4.50
2019-04-11T19:13:39.535Z,4.50
2019-04-11T19:14:39.490Z,4.50
2019-04-11T19:15:39.508Z,4.52
2019-04-11T19:16:39.462Z,4.52
2019-04-11T19:17:39.465Z,4.50
2019-04-11T19:18:39.569Z,4.50
2019-04-11T19:19:39.453Z,4.49
2019-04-11T19:20:39.433Z,4.48
2019-04-11T19:21:39.414Z,4.48
2019-04-11T19:22:39.424Z,4.45
2019-04-11T19:23:39.759Z,4.44
2019-04-11T19:24:41.659Z,4.45
2019-04-11T19:25:44.359Z,4.42
2019-04-11T19:26:40.414Z,4.40
2019-04-11T19:27:39.361Z,4.41
2019-04-11T19:28:39.341Z,4.38
2019-04-11T19:29:39.325Z,4.37
2019-04-11T19:30:39.338Z,4.37
2019-04-11T19:31:39.303Z,4.37
2019-04-11T19:32:39.318Z,4.35
2019-04-11T19:33:40.098Z,4.34
2019-04-11T19:34:39.314Z,4.32
2019-04-11T19:35:41.511Z,4.34
2019-04-11T19:36:39.845Z,4.31
2019-04-11T19:37:41.788Z,4.31
2019-04-11T19:38:43.102Z,4.30
2019-04-11T19:39:39.236Z,4.30
2019-04-11T19:40:39.208Z,4.28
2019-04-11T19:41:39.219Z,4.30
2019-04-11T19:42:39.235Z,4.28
2019-04-11T19:43:40.844Z,4.28
2019-04-11T19:44:39.184Z,4.30
2019-04-11T19:45:39.155Z,4.32
2019-04-11T19:46:40.908Z,4.30
2019-04-11T19:47:39.189Z,4.30
2019-04-11T19:48:39.143Z,4.26
2019-04-11T19:49:39.115Z,4.28
2019-04-11T19:50:39.108Z,4.28
2019-04-11T19:51:39.091Z,4.26
2019-04-11T19:52:45.320Z,4.28
2019-04-11T19:53:40.113Z,4.30
2019-04-11T19:54:39.110Z,4.28
2019-04-11T19:55:39.103Z,4.30
2019-04-11T19:56:39.031Z,4.30
2019-04-11T19:57:39.033Z,4.26
2019-04-11T19:58:39.022Z,4.22
2019-04-11T19:59:39.030Z,4.20
2019-04-11T20:00:39.031Z,4.23
2019-04-11T20:01:38.995Z,4.22
2019-04-11T20:02:39.006Z,4.22
2019-04-11T20:03:38.973Z,4.22
2019-04-11T20:04:38.988Z,4.20
2019-04-11T20:05:38.990Z,4.23
2019-04-11T20:06:38.950Z,4.22
2019-04-11T20:07:38.941Z,4.22
2019-04-11T20:08:38.923Z,4.20
2019-04-11T20:09:38.940Z,4.19
2019-04-11T20:10:38.964Z,4.19
2019-04-11T20:11:38.907Z,4.17
2019-04-11T20:12:38.875Z,4.17
2019-04-11T20:13:38.912Z,4.17
2019-04-11T20:14:38.858Z,4.17
2019-04-11T20:15:42.139Z,4.16
2019-04-11T20:16:42.021Z,4.19
2019-04-11T20:17:44.607Z,4.16
2019-04-11T20:18:50.385Z,4.14
2019-04-11T20:19:39.827Z,4.16
2019-04-11T20:20:38.820Z,4.13
2019-04-11T20:21:39.064Z,4.13
2019-04-11T20:22:39.788Z,4.12
2019-04-11T20:23:41.395Z,4.12
2019-04-11T20:24:38.752Z,4.13
2019-04-11T20:25:38.779Z,4.12
2019-04-11T20:26:38.758Z,4.13
2019-04-11T20:27:38.700Z,4.14
2019-04-11T20:28:38.720Z,4.12
2019-04-11T20:29:38.713Z,4.13
2019-04-11T20:30:38.699Z,4.12
2019-04-11T20:31:38.713Z,4.12
2019-04-11T20:32:38.657Z,4.12
2019-04-11T20:33:38.669Z,4.12
2019-04-11T20:34:39.176Z,4.08
2019-04-11T20:35:40.042Z,4.08
2019-04-11T20:36:41.070Z,4.06
2019-04-11T20:37:39.646Z,4.05
2019-04-11T20:38:38.683Z,4.05
2019-04-11T20:39:38.579Z,4.05
2019-04-11T20:40:38.586Z,4.04
2019-04-11T20:41:38.587Z,4.02
2019-04-11T20:42:38.541Z,4.02
2019-04-11T20:43:38.545Z,4.02
2019-04-11T20:44:38.527Z,3.99
2019-04-11T20:45:38.508Z,3.98
2019-04-11T20:46:38.543Z,3.96
2019-04-11T20:47:38.538Z,3.95
2019-04-11T20:48:38.481Z,3.95
2019-04-11T20:49:38.484Z,3.94
2019-04-11T20:50:38.475Z,3.94
2019-04-11T20:51:38.435Z,3.92
2019-04-11T20:52:38.469Z,3.94
2019-04-11T20:53:38.439Z,3.94
2019-04-11T20:54:39.136Z,3.94
2019-04-11T20:55:39.351Z,3.94
2019-04-11T20:56:40.373Z,3.94
2019-04-11T20:57:40.451Z,3.91
2019-04-11T20:58:39.732Z,3.88
2019-04-11T20:59:42.242Z,3.88
2019-04-11T21:00:49.526Z,3.88
2019-04-11T21:01:39.351Z,3.87
2019-04-11T21:02:38.353Z,3.86
2019-04-11T21:03:38.319Z,3.86
2019-04-11T21:04:38.301Z,3.84
2019-04-11T21:05:38.301Z,3.84
2019-04-11T21:06:38.291Z,3.84
2019-04-11T21:07:39.218Z,3.84
2019-04-11T21:08:38.289Z,3.84
2019-04-11T21:09:38.246Z,3.86
2019-04-11T21:10:38.225Z,3.86
2019-04-11T21:11:38.238Z,3.84
2019-04-11T21:12:38.209Z,3.84
2019-04-11T21:13:38.976Z,3.84
2019-04-11T21:14:38.226Z,3.83
2019-04-11T21:15:38.192Z,3.83
2019-04-11T21:16:38.165Z,3.83
2019-04-11T21:17:38.197Z,3.81
2019-04-11T21:18:38.165Z,3.81
2019-04-11T21:19:38.145Z,3.78
2019-04-11T21:20:39.471Z,3.78
2019-04-11T21:21:38.154Z,3.78
2019-04-11T21:22:38.159Z,3.77
2019-04-11T21:23:38.130Z,3.76
2019-04-11T21:24:38.124Z,3.74
2019-04-11T21:25:38.101Z,3.76
2019-04-11T21:26:38.102Z,3.76
2019-04-11T21:27:38.050Z,3.74
2019-04-11T21:28:38.070Z,3.74
2019-04-11T21:29:38.080Z,3.73
2019-04-11T21:30:38.078Z,3.73
2019-04-11T21:31:38.062Z,3.70
2019-04-11T21:32:38.002Z,3.70
2019-04-11T21:33:38.004Z,3.68
2019-04-11T21:34:38.031Z,3.69
2019-04-11T21:35:38.028Z,3.68
2019-04-11T21:36:37.980Z,3.68
2019-04-11T21:37:37.968Z,3.69
2019-04-11T21:38:37.950Z,3.69
2019-04-11T21:39:37.920Z,3.69
2019-04-11T21:40:37.972Z,3.70
2019-04-11T21:41:37.918Z,3.69
2019-04-11T21:42:37.904Z,3.69
2019-04-11T21:43:37.895Z,3.68
2019-04-11T21:44:37.898Z,3.68
2019-04-11T21:45:37.895Z,3.66
2019-04-11T21:46:41.629Z,3.66
2019-04-11T21:47:38.116Z,3.68
2019-04-11T21:48:37.872Z,3.66
2019-04-11T21:49:37.854Z,3.66
2019-04-11T21:50:40.389Z,3.66
2019-04-11T21:51:41.448Z,3.63
2019-04-11T21:52:37.804Z,3.66
2019-04-11T21:53:37.804Z,3.66
2019-04-11T21:54:37.804Z,3.65
2019-04-11T21:55:37.801Z,3.63
2019-04-11T21:56:37.767Z,3.63
2019-04-11T21:57:37.793Z,3.60
2019-04-11T21:58:37.732Z,3.60
2019-04-11T21:59:37.721Z,3.60
2019-04-11T22:00:37.741Z,3.60
2019-04-11T22:01:37.737Z,3.60
2019-04-11T22:02:37.690Z,3.60
2019-04-11T22:03:37.682Z,3.60
2019-04-11T22:04:37.686Z,3.59
2019-04-11T22:05:37.661Z,3.60
2019-04-11T22:06:37.660Z,3.60
2019-04-11T22:07:37.654Z,3.60
2019-04-11T22:08:37.620Z,3.60
2019-04-11T22:09:37.650Z,3.59
2019-04-11T22:10:40.038Z,3.56
2019-04-11T22:11:38.429Z,3.56
2019-04-11T22:12:39.756Z,3.56
2019-04-11T22:13:38.024Z,3.55
2019-04-11T22:14:41.341Z,3.55
2019-04-11T22:15:42.172Z,3.53
2019-04-11T22:16:38.609Z,3.53
2019-04-11T22:17:37.615Z,3.55
2019-04-11T22:18:37.553Z,3.51
2019-04-11T22:19:37.539Z,3.51
2019-04-11T22:20:37.488Z,3.51
2019-04-11T22:21:37.506Z,3.51
2019-04-11T22:22:37.522Z,3.48
2019-04-11T22:23:48.288Z,3.50
2019-04-11T22:24:38.484Z,3.50
2019-04-11T22:25:37.449Z,3.51
2019-04-11T22:26:37.440Z,3.51
2019-04-11T22:27:37.487Z,3.51
2019-04-11T22:28:37.422Z,3.51
2019-04-11T22:29:37.447Z,3.50
2019-04-11T22:30:37.400Z,3.50
2019-04-11T22:31:37.399Z,3.48
2019-04-11T22:32:37.390Z,3.48
2019-04-11T22:33:37.369Z,3.47
2019-04-11T22:34:37.329Z,3.45
2019-04-11T22:35:37.361Z,3.42
2019-04-11T22:36:37.334Z,3.42
2019-04-11T22:37:37.345Z,3.41
2019-04-11T22:38:37.336Z,3.41
2019-04-11T22:39:37.333Z,3.41
2019-04-11T22:40:37.285Z,3.42
2019-04-11T22:41:37.295Z,3.41
2019-04-11T22:42:37.313Z,3.40
2019-04-11T22:43:38.140Z,3.41
2019-04-11T22:44:38.010Z,3.41
2019-04-11T22:45:37.958Z,3.37
2019-04-11T22:46:37.852Z,3.37
2019-04-11T22:47:38.311Z,3.40
2019-04-11T22:48:39.077Z,3.40
2019-04-11T22:49:39.518Z,3.40
2019-04-11T22:50:40.314Z,3.37
2019-04-11T22:51:37.193Z,3.34
2019-04-11T22:52:37.185Z,3.34
2019-04-11T22:53:37.175Z,3.32
2019-04-11T22:54:37.180Z,3.36
2019-04-11T22:55:38.928Z,3.32
2019-04-11T22:56:37.119Z,3.31
2019-04-11T22:57:37.103Z,3.31
2019-04-11T22:58:37.163Z,3.29
2019-04-11T22:59:37.131Z,3.34
2019-04-11T23:00:37.047Z,3.36
2019-04-11T23:01:37.151Z,3.36
2019-04-11T23:02:37.081Z,3.36
2019-04-11T23:03:37.105Z,3.32
2019-04-11T23:04:37.077Z,3.34
2019-04-11T23:05:37.032Z,3.34
2019-04-11T23:06:37.018Z,3.32
2019-04-11T23:07:37.043Z,3.31
2019-04-11T23:08:37.001Z,3.31
2019-04-11T23:09:37.027Z,3.29
2019-04-11T23:10:36.979Z,3.28
2019-04-11T23:11:36.945Z,3.26
2019-04-11T23:12:36.935Z,3.26
2019-04-11T23:13:36.951Z,3.25
2019-04-11T23:14:36.933Z,3.23
2019-04-11T23:15:36.933Z,3.23
2019-04-11T23:16:36.905Z,3.22
2019-04-11T23:17:37.997Z,3.23
2019-04-11T23:18:36.886Z,3.22
2019-04-11T23:19:36.915Z,3.23
2019-04-11T23:20:36.873Z,3.21
2019-04-11T23:21:36.833Z,3.21
2019-04-11T23:22:36.822Z,3.22
2019-04-11T23:23:36.864Z,3.21
2019-04-11T23:24:36.813Z,3.22
2019-04-11T23:25:36.878Z,3.19
2019-04-11T23:26:36.812Z,3.19
2019-04-11T23:27:36.823Z,3.18
2019-04-11T23:28:36.758Z,3.18
2019-04-11T23:29:36.761Z,3.16
2019-04-11T23:30:36.759Z,3.14
2019-04-11T23:31:36.758Z,3.13
2019-04-11T23:32:36.724Z,3.14
2019-04-11T23:33:36.729Z,3.11
2019-04-11T23:34:36.727Z,3.10
2019-04-11T23:35:36.772Z,3.10
2019-04-11T23:36:36.676Z,3.08
2019-04-11T23:37:36.675Z,3.05
2019-04-11T23:38:36.688Z,3.05
2019-04-11T23:39:36.648Z,3.04
2019-04-11T23:40:36.693Z,3.04
2019-04-11T23:41:36.644Z,3.03
2019-04-11T23:42:36.607Z,3.04
2019-04-11T23:43:36.597Z,3.05
2019-04-11T23:44:36.618Z,3.04
2019-04-11T23:45:36.604Z,3.04
2019-04-11T23:46:36.584Z,3.03
2019-04-11T23:47:36.560Z,3.03
2019-04-11T23:48:36.616Z,3.01
2019-04-11T23:49:36.576Z,3.01
2019-04-11T23:50:36.568Z,3.03
2019-04-11T23:51:36.560Z,3.03
2019-04-11T23:52:36.514Z,3.03
2019-04-11T23:53:36.494Z,3.05
2019-04-11T23:54:36.532Z,3.04
2019-04-11T23:55:36.500Z,3.04
2019-04-11T23:56:36.506Z,3.03
2019-04-11T23:57:36.503Z,3.01
2019-04-11T23:58:36.488Z,3.01
2019-04-11T23:59:36.422Z,3.01
